createdAt,value
2019-02-05T00:00:24.398Z,1008.95
2019-02-05T00:01:24.218Z,1008.97
2019-02-05T00:02:24.199Z,1008.96
2019-02-05T00:03:25.073Z,1008.92
2019-02-05T00:04:24.187Z,1008.96
2019-02-05T00:05:24.178Z,1008.92
2019-02-05T00:06:24.195Z,1008.91
2019-02-05T00:07:24.152Z,1008.97
2019-02-05T00:08:24.144Z,1008.97
2019-02-05T00:09:24.132Z,1008.95
2019-02-05T00:10:24.124Z,1008.94
2019-02-05T00:11:24.115Z,1008.95
2019-02-05T00:12:24.385Z,1008.98
2019-02-05T00:13:24.096Z,1008.99
2019-02-05T00:14:24.158Z,1009.00
2019-02-05T00:15:24.067Z,1008.97
2019-02-05T00:16:24.059Z,1009.07
2019-02-05T00:17:34.142Z,1009.06
2019-02-05T00:18:24.037Z,1009.03
2019-02-05T00:19:24.032Z,1009.06
2019-02-05T00:20:24.023Z,1009.06
2019-02-05T00:21:24.014Z,1009.02
2019-02-05T00:22:24.001Z,1008.99
2019-02-05T00:23:24.022Z,1009.03
2019-02-05T00:24:23.985Z,1009.01
2019-02-05T00:25:23.973Z,1009.07
2019-02-05T00:26:23.961Z,1009.01
2019-02-05T00:27:23.947Z,1008.95
2019-02-05T00:28:23.935Z,1009.03
2019-02-05T00:29:23.960Z,1009.01
2019-02-05T00:30:23.922Z,1008.97
2019-02-05T00:31:23.914Z,1008.99
2019-02-05T00:32:23.898Z,1008.97
2019-02-05T00:33:23.889Z,1009.00
2019-02-05T00:34:23.873Z,1008.95
2019-02-05T00:35:23.905Z,1008.97
2019-02-05T00:36:23.866Z,1008.94
2019-02-05T00:37:23.844Z,1008.97
2019-02-05T00:38:23.838Z,1009.03
2019-02-05T00:39:23.879Z,1009.00
2019-02-05T00:40:23.817Z,1009.02
2019-02-05T00:41:23.847Z,1009.00
2019-02-05T00:42:23.803Z,1009.07
2019-02-05T00:43:23.786Z,1009.10
2019-02-05T00:44:23.778Z,1009.06
2019-02-05T00:45:23.764Z,1009.07
2019-02-05T00:46:23.753Z,1009.09
2019-02-05T00:47:23.779Z,1009.07
2019-02-05T00:48:33.709Z,1009.10
2019-02-05T00:49:23.729Z,1009.07
2019-02-05T00:50:23.710Z,1009.08
2019-02-05T00:51:23.703Z,1009.05
2019-02-05T00:52:23.692Z,1009.08
2019-02-05T00:53:23.736Z,1009.03
2019-02-05T00:54:23.679Z,1009.10
2019-02-05T00:55:23.662Z,1009.04
2019-02-05T00:56:23.657Z,1009.06
2019-02-05T00:57:23.645Z,1009.04
2019-02-05T00:58:23.634Z,1008.94
2019-02-05T00:59:23.656Z,1008.92
2019-02-05T01:00:23.608Z,1008.85
2019-02-05T01:01:23.613Z,1008.80
2019-02-05T01:02:23.592Z,1008.79
2019-02-05T01:03:23.579Z,1008.78
2019-02-05T01:04:23.569Z,1008.81
2019-02-05T01:05:23.589Z,1008.77
2019-02-05T01:06:23.548Z,1008.79
2019-02-05T01:07:23.542Z,1008.82
2019-02-05T01:08:23.535Z,1008.85
2019-02-05T01:09:24.100Z,1008.78
2019-02-05T01:10:23.506Z,1008.84
2019-02-05T01:11:23.534Z,1008.79
2019-02-05T01:12:23.486Z,1008.76
2019-02-05T01:13:23.478Z,1008.77
2019-02-05T01:14:23.475Z,1008.84
2019-02-05T01:15:23.455Z,1008.79
2019-02-05T01:16:23.450Z,1008.78
2019-02-05T01:17:23.482Z,1008.84
2019-02-05T01:18:23.429Z,1008.78
2019-02-05T01:19:34.178Z,1008.82
2019-02-05T01:20:23.407Z,1008.76
2019-02-05T01:21:23.401Z,1008.80
2019-02-05T01:22:23.387Z,1008.74
2019-02-05T01:23:23.414Z,1008.74
2019-02-05T01:24:23.376Z,1008.78
2019-02-05T01:25:23.353Z,1008.77
2019-02-05T01:26:29.375Z,1008.80
2019-02-05T01:27:24.342Z,1008.76
2019-02-05T01:28:23.342Z,1008.77
2019-02-05T01:29:23.381Z,1008.79
2019-02-05T01:30:23.306Z,1008.77
2019-02-05T01:31:23.299Z,1008.77
2019-02-05T01:32:23.289Z,1008.77
2019-02-05T01:33:23.284Z,1008.77
2019-02-05T01:34:23.263Z,1008.76
2019-02-05T01:35:23.293Z,1008.81
2019-02-05T01:36:23.241Z,1008.79
2019-02-05T01:37:23.238Z,1008.76
2019-02-05T01:38:23.229Z,1008.74
2019-02-05T01:39:23.318Z,1008.75
2019-02-05T01:40:23.200Z,1008.74
2019-02-05T01:41:23.235Z,1008.74
2019-02-05T01:42:23.188Z,1008.71
2019-02-05T01:43:23.175Z,1008.68
2019-02-05T01:44:23.163Z,1008.70
2019-02-05T01:45:23.155Z,1008.74
2019-02-05T01:46:23.140Z,1008.74
2019-02-05T01:47:23.172Z,1008.74
2019-02-05T01:48:23.126Z,1008.79
2019-02-05T01:49:23.108Z,1008.82
2019-02-05T01:50:34.498Z,1008.79
2019-02-05T01:51:23.090Z,1008.75
2019-02-05T01:52:23.077Z,1008.78
2019-02-05T01:53:23.110Z,1008.72
2019-02-05T01:54:23.064Z,1008.77
2019-02-05T01:55:23.060Z,1008.75
2019-02-05T01:56:23.043Z,1008.78
2019-02-05T01:57:23.033Z,1008.78
2019-02-05T01:58:23.027Z,1008.77
2019-02-05T01:59:23.273Z,1008.78
2019-02-05T02:00:23.004Z,1008.77
2019-02-05T02:01:22.989Z,1008.77
2019-02-05T02:02:22.978Z,1008.81
2019-02-05T02:03:22.976Z,1008.72
2019-02-05T02:04:22.960Z,1008.75
2019-02-05T02:05:22.987Z,1008.72
2019-02-05T02:06:22.938Z,1008.69
2019-02-05T02:07:22.925Z,1008.63
2019-02-05T02:08:22.917Z,1008.76
2019-02-05T02:09:22.913Z,1008.74
2019-02-05T02:10:22.899Z,1008.71
2019-02-05T02:11:23.055Z,1008.73
2019-02-05T02:12:22.878Z,1008.72
2019-02-05T02:13:22.867Z,1008.67
2019-02-05T02:14:22.858Z,1008.66
2019-02-05T02:15:22.861Z,1008.71
2019-02-05T02:16:22.838Z,1008.73
2019-02-05T02:17:22.863Z,1008.69
2019-02-05T02:18:22.822Z,1008.67
2019-02-05T02:19:22.803Z,1008.73
2019-02-05T02:20:22.794Z,1008.70
2019-02-05T02:21:33.207Z,1008.72
2019-02-05T02:22:22.774Z,1008.72
2019-02-05T02:23:22.803Z,1008.68
2019-02-05T02:24:22.754Z,1008.69
2019-02-05T02:25:22.746Z,1008.70
2019-02-05T02:26:22.738Z,1008.62
2019-02-05T02:27:22.722Z,1008.63
2019-02-05T02:28:22.711Z,1008.66
2019-02-05T02:29:22.730Z,1008.62
2019-02-05T02:30:22.698Z,1008.60
2019-02-05T02:31:22.682Z,1008.54
2019-02-05T02:32:22.668Z,1008.50
2019-02-05T02:33:22.668Z,1008.46
2019-02-05T02:34:22.657Z,1008.61
2019-02-05T02:35:22.681Z,1008.67
2019-02-05T02:36:22.632Z,1008.58
2019-02-05T02:37:22.619Z,1008.50
2019-02-05T02:38:22.613Z,1008.48
2019-02-05T02:39:22.602Z,1008.52
2019-02-05T02:40:22.594Z,1008.72
2019-02-05T02:41:22.629Z,1008.86
2019-02-05T02:42:22.566Z,1008.87
2019-02-05T02:43:22.562Z,1008.73
2019-02-05T02:44:22.545Z,1008.73
2019-02-05T02:45:22.535Z,1008.76
2019-02-05T02:46:22.532Z,1008.75
2019-02-05T02:47:22.561Z,1008.77
2019-02-05T02:48:22.504Z,1008.72
2019-02-05T02:49:22.498Z,1008.68
2019-02-05T02:50:22.490Z,1008.74
2019-02-05T02:51:22.476Z,1008.86
2019-02-05T02:52:34.195Z,1008.87
2019-02-05T02:53:22.456Z,1008.74
2019-02-05T02:54:22.445Z,1008.71
2019-02-05T02:55:22.436Z,1008.75
2019-02-05T02:56:22.429Z,1008.77
2019-02-05T02:57:22.419Z,1008.69
2019-02-05T02:58:22.448Z,1008.85
2019-02-05T02:59:22.393Z,1008.78
2019-02-05T03:00:22.389Z,1008.74
2019-02-05T03:01:22.386Z,1008.79
2019-02-05T03:02:22.361Z,1008.81
2019-02-05T03:03:22.358Z,1008.85
2019-02-05T03:04:22.380Z,1008.80
2019-02-05T03:05:22.333Z,1008.65
2019-02-05T03:06:29.306Z,1008.69
2019-02-05T03:07:22.321Z,1008.69
2019-02-05T03:08:22.306Z,1008.72
2019-02-05T03:09:22.292Z,1008.66
2019-02-05T03:10:22.442Z,1008.68
2019-02-05T03:11:22.279Z,1008.75
2019-02-05T03:12:22.261Z,1008.68
2019-02-05T03:13:22.254Z,1008.77
2019-02-05T03:14:22.248Z,1008.78
2019-02-05T03:15:22.234Z,1008.73
2019-02-05T03:16:22.256Z,1008.75
2019-02-05T03:17:22.209Z,1008.83
2019-02-05T03:18:22.254Z,1008.73
2019-02-05T03:19:22.201Z,1008.80
2019-02-05T03:20:22.183Z,1008.76
2019-02-05T03:21:22.169Z,1008.78
2019-02-05T03:22:22.194Z,1008.78
2019-02-05T03:23:22.149Z,1008.84
2019-02-05T03:24:22.136Z,1008.79
2019-02-05T03:25:22.132Z,1008.74
2019-02-05T03:26:22.127Z,1008.79
2019-02-05T03:27:22.112Z,1008.76
2019-02-05T03:28:22.118Z,1008.77
2019-02-05T03:29:22.087Z,1008.75
2019-02-05T03:30:22.083Z,1008.71
2019-02-05T03:31:22.067Z,1008.68
2019-02-05T03:32:22.066Z,1008.69
2019-02-05T03:33:22.068Z,1008.68
2019-02-05T03:34:22.084Z,1008.72
2019-02-05T03:35:22.026Z,1008.74
2019-02-05T03:36:22.019Z,1008.69
2019-02-05T03:37:32.414Z,1008.69
2019-02-05T03:38:21.998Z,1008.67
2019-02-05T03:39:21.985Z,1008.71
2019-02-05T03:40:22.022Z,1008.69
2019-02-05T03:41:21.965Z,1008.61
2019-02-05T03:42:21.960Z,1008.61
2019-02-05T03:43:21.949Z,1008.58
2019-02-05T03:44:21.940Z,1008.55
2019-02-05T03:45:21.934Z,1008.58
2019-02-05T03:46:21.962Z,1008.59
2019-02-05T03:47:21.909Z,1008.61
2019-02-05T03:48:21.893Z,1008.59
2019-02-05T03:49:21.881Z,1008.59
2019-02-05T03:50:21.886Z,1008.56
2019-02-05T03:51:21.869Z,1008.58
2019-02-05T03:52:21.894Z,1008.59
2019-02-05T03:53:21.847Z,1008.59
2019-02-05T03:54:21.832Z,1008.54
2019-02-05T03:55:21.823Z,1008.55
2019-02-05T03:56:21.817Z,1008.55
2019-02-05T03:57:30.659Z,1008.52
2019-02-05T03:58:22.825Z,1008.44
2019-02-05T03:59:21.780Z,1008.39
2019-02-05T04:00:21.768Z,1008.37
2019-02-05T04:01:21.756Z,1008.38
2019-02-05T04:02:21.750Z,1008.39
2019-02-05T04:03:21.747Z,1008.43
2019-02-05T04:04:21.768Z,1008.38
2019-02-05T04:05:21.720Z,1008.36
2019-02-05T04:06:21.709Z,1008.40
2019-02-05T04:07:21.700Z,1008.36
2019-02-05T04:08:32.114Z,1008.41
2019-02-05T04:09:21.677Z,1008.39
2019-02-05T04:10:21.684Z,1008.39
2019-02-05T04:11:21.657Z,1008.41
2019-02-05T04:12:21.654Z,1008.37
2019-02-05T04:13:21.646Z,1008.39
2019-02-05T04:14:21.624Z,1008.38
2019-02-05T04:15:21.616Z,1008.36
2019-02-05T04:16:21.656Z,1008.39
2019-02-05T04:17:21.599Z,1008.40
2019-02-05T04:18:21.582Z,1008.43
2019-02-05T04:19:21.573Z,1008.41
2019-02-05T04:20:21.565Z,1008.31
2019-02-05T04:21:21.554Z,1008.27
2019-02-05T04:22:21.585Z,1008.22
2019-02-05T04:23:21.534Z,1008.20
2019-02-05T04:24:21.521Z,1008.18
2019-02-05T04:25:21.512Z,1008.23
2019-02-05T04:26:21.506Z,1008.13
2019-02-05T04:27:21.512Z,1008.12
2019-02-05T04:28:21.644Z,1008.15
2019-02-05T04:29:21.473Z,1008.16
2019-02-05T04:30:21.457Z,1008.17
2019-02-05T04:31:21.451Z,1008.12
2019-02-05T04:32:21.437Z,1008.11
2019-02-05T04:33:21.434Z,1008.09
2019-02-05T04:34:21.443Z,1008.10
2019-02-05T04:35:21.413Z,1008.08
2019-02-05T04:36:21.401Z,1008.09
2019-02-05T04:37:21.387Z,1008.08
2019-02-05T04:38:21.372Z,1008.15
2019-02-05T04:39:32.413Z,1008.15
2019-02-05T04:40:21.385Z,1008.17
2019-02-05T04:41:21.353Z,1008.18
2019-02-05T04:42:21.342Z,1008.14
2019-02-05T04:43:21.338Z,1008.20
2019-02-05T04:44:21.321Z,1008.18
2019-02-05T04:45:33.431Z,1008.14
2019-02-05T04:46:22.296Z,1008.13
2019-02-05T04:47:21.303Z,1008.11
2019-02-05T04:48:21.299Z,1008.07
2019-02-05T04:49:21.268Z,1008.09
2019-02-05T04:50:21.252Z,1008.07
2019-02-05T04:51:21.287Z,1008.03
2019-02-05T04:52:21.246Z,1008.04
2019-02-05T04:53:21.221Z,1008.03
2019-02-05T04:54:21.219Z,1008.03
2019-02-05T04:55:21.205Z,1008.01
2019-02-05T04:56:21.190Z,1008.04
2019-02-05T04:57:21.224Z,1007.95
2019-02-05T04:58:21.171Z,1007.99
2019-02-05T04:59:21.172Z,1007.97
2019-02-05T05:00:21.164Z,1007.97
2019-02-05T05:01:21.139Z,1007.97
2019-02-05T05:02:21.130Z,1007.94
2019-02-05T05:03:21.157Z,1007.91
2019-02-05T05:04:21.118Z,1007.94
2019-02-05T05:05:21.100Z,1007.96
2019-02-05T05:06:21.092Z,1007.88
2019-02-05T05:07:21.109Z,1007.92
2019-02-05T05:08:21.070Z,1007.88
2019-02-05T05:09:21.097Z,1007.86
2019-02-05T05:10:31.685Z,1007.84
2019-02-05T05:11:21.038Z,1007.79
2019-02-05T05:12:21.026Z,1007.75
2019-02-05T05:13:21.023Z,1007.84
2019-02-05T05:14:21.006Z,1007.87
2019-02-05T05:15:21.029Z,1007.85
2019-02-05T05:16:20.984Z,1007.82
2019-02-05T05:17:20.969Z,1007.83
2019-02-05T05:18:20.962Z,1007.79
2019-02-05T05:19:20.954Z,1007.78
2019-02-05T05:20:20.946Z,1007.76
2019-02-05T05:21:20.967Z,1007.75
2019-02-05T05:22:20.924Z,1007.69
2019-02-05T05:23:20.911Z,1007.74
2019-02-05T05:24:20.901Z,1007.74
2019-02-05T05:25:20.896Z,1007.72
2019-02-05T05:26:20.879Z,1007.66
2019-02-05T05:27:20.910Z,1007.68
2019-02-05T05:28:20.865Z,1007.72
2019-02-05T05:29:20.849Z,1007.67
2019-02-05T05:30:20.836Z,1007.67
2019-02-05T05:31:20.838Z,1007.65
2019-02-05T05:32:20.821Z,1007.61
2019-02-05T05:33:20.862Z,1007.65
2019-02-05T05:34:20.794Z,1007.64
2019-02-05T05:35:20.784Z,1007.63
2019-02-05T05:36:20.845Z,1007.62
2019-02-05T05:37:20.769Z,1007.60
2019-02-05T05:38:20.754Z,1007.59
2019-02-05T05:39:20.785Z,1007.63
2019-02-05T05:40:20.735Z,1007.60
2019-02-05T05:41:30.765Z,1007.61
2019-02-05T05:42:20.712Z,1007.56
2019-02-05T05:43:20.705Z,1007.57
2019-02-05T05:44:20.691Z,1007.58
2019-02-05T05:45:20.776Z,1007.59
2019-02-05T05:46:20.673Z,1007.58
2019-02-05T05:47:20.660Z,1007.55
2019-02-05T05:48:20.658Z,1007.56
2019-02-05T05:49:20.645Z,1007.55
2019-02-05T05:50:21.346Z,1007.52
2019-02-05T05:51:20.775Z,1007.51
2019-02-05T05:52:20.610Z,1007.50
2019-02-05T05:53:20.602Z,1007.47
2019-02-05T05:54:20.590Z,1007.44
2019-02-05T05:55:20.580Z,1007.44
2019-02-05T05:56:20.589Z,1007.44
2019-02-05T05:57:20.645Z,1007.46
2019-02-05T05:58:23.069Z,1007.43
2019-02-05T05:59:20.544Z,1007.47
2019-02-05T06:00:20.686Z,1007.46
2019-02-05T06:01:20.519Z,1007.45
2019-02-05T06:02:20.541Z,1007.45
2019-02-05T06:03:21.803Z,1007.43
2019-02-05T06:04:20.491Z,1007.41
2019-02-05T06:05:20.470Z,1007.43
2019-02-05T06:06:20.472Z,1007.45
2019-02-05T06:07:20.448Z,1007.43
2019-02-05T06:08:20.461Z,1007.46
2019-02-05T06:09:20.476Z,1007.44
2019-02-05T06:10:20.417Z,1007.42
2019-02-05T06:11:20.413Z,1007.40
2019-02-05T06:12:32.115Z,1007.41
2019-02-05T06:13:20.383Z,1007.39
2019-02-05T06:14:20.381Z,1007.38
2019-02-05T06:15:20.401Z,1007.36
2019-02-05T06:16:20.353Z,1007.36
2019-02-05T06:17:20.358Z,1007.30
2019-02-05T06:18:20.335Z,1007.31
2019-02-05T06:19:20.326Z,1007.33
2019-02-05T06:20:20.330Z,1007.30
2019-02-05T06:21:20.346Z,1007.28
2019-02-05T06:22:20.296Z,1007.34
2019-02-05T06:23:20.280Z,1007.27
2019-02-05T06:24:20.270Z,1007.19
2019-02-05T06:25:20.283Z,1007.23
2019-02-05T06:26:20.446Z,1007.18
2019-02-05T06:27:20.264Z,1007.19
2019-02-05T06:28:20.226Z,1007.19
2019-02-05T06:29:20.224Z,1007.18
2019-02-05T06:30:20.205Z,1007.18
2019-02-05T06:31:20.210Z,1007.14
2019-02-05T06:32:20.191Z,1007.13
2019-02-05T06:33:23.395Z,1007.11
2019-02-05T06:34:20.168Z,1007.10
2019-02-05T06:35:20.157Z,1007.07
2019-02-05T06:36:20.145Z,1007.09
2019-02-05T06:37:20.141Z,1007.04
2019-02-05T06:38:20.123Z,1006.98
2019-02-05T06:39:20.287Z,1006.98
2019-02-05T06:40:20.102Z,1006.96
2019-02-05T06:41:20.107Z,1006.97
2019-02-05T06:42:20.082Z,1006.95
2019-02-05T06:43:30.519Z,1006.91
2019-02-05T06:44:20.075Z,1006.96
2019-02-05T06:45:20.253Z,1006.92
2019-02-05T06:46:20.084Z,1006.96
2019-02-05T06:47:20.039Z,1006.92
2019-02-05T06:48:20.127Z,1006.95
2019-02-05T06:49:20.009Z,1006.95
2019-02-05T06:50:20.010Z,1006.90
2019-02-05T06:51:20.037Z,1006.93
2019-02-05T06:52:20.006Z,1006.90
2019-02-05T06:53:19.979Z,1006.85
2019-02-05T06:54:19.953Z,1006.84
2019-02-05T06:55:19.948Z,1006.83
2019-02-05T06:56:19.966Z,1006.82
2019-02-05T06:57:19.990Z,1006.80
2019-02-05T06:58:19.916Z,1006.79
2019-02-05T06:59:19.912Z,1006.77
2019-02-05T07:00:20.037Z,1006.77
2019-02-05T07:01:19.887Z,1006.77
2019-02-05T07:02:19.916Z,1006.75
2019-02-05T07:03:20.072Z,1006.79
2019-02-05T07:04:19.860Z,1006.80
2019-02-05T07:05:19.891Z,1006.78
2019-02-05T07:06:19.837Z,1006.68
2019-02-05T07:07:19.825Z,1006.68
2019-02-05T07:08:19.824Z,1006.71
2019-02-05T07:09:19.843Z,1006.71
2019-02-05T07:10:19.793Z,1006.69
2019-02-05T07:11:19.783Z,1006.65
2019-02-05T07:12:21.817Z,1006.61
2019-02-05T07:13:19.755Z,1006.65
2019-02-05T07:14:30.312Z,1006.66
2019-02-05T07:15:19.734Z,1006.64
2019-02-05T07:16:19.725Z,1006.62
2019-02-05T07:17:19.720Z,1006.63
2019-02-05T07:18:19.707Z,1006.64
2019-02-05T07:19:19.710Z,1006.61
2019-02-05T07:20:19.719Z,1006.64
2019-02-05T07:21:19.675Z,1006.61
2019-02-05T07:22:19.665Z,1006.59
2019-02-05T07:23:19.655Z,1006.51
2019-02-05T07:24:19.636Z,1006.51
2019-02-05T07:25:19.638Z,1006.45
2019-02-05T07:26:19.696Z,1006.49
2019-02-05T07:27:19.612Z,1006.48
2019-02-05T07:28:19.606Z,1006.46
2019-02-05T07:29:19.584Z,1006.48
2019-02-05T07:30:19.680Z,1006.49
2019-02-05T07:31:19.564Z,1006.52
2019-02-05T07:32:19.590Z,1006.44
2019-02-05T07:33:19.549Z,1006.48
2019-02-05T07:34:21.341Z,1006.44
2019-02-05T07:35:19.527Z,1006.42
2019-02-05T07:36:19.534Z,1006.48
2019-02-05T07:37:19.509Z,1006.58
2019-02-05T07:38:19.707Z,1006.44
2019-02-05T07:39:19.497Z,1006.48
2019-02-05T07:40:19.473Z,1006.45
2019-02-05T07:41:19.470Z,1006.49
2019-02-05T07:42:19.448Z,1006.53
2019-02-05T07:43:19.438Z,1006.49
2019-02-05T07:44:19.467Z,1006.48
2019-02-05T07:45:31.142Z,1006.50
2019-02-05T07:46:19.412Z,1006.48
2019-02-05T07:47:19.398Z,1006.44
2019-02-05T07:48:19.388Z,1006.40
2019-02-05T07:49:19.375Z,1006.43
2019-02-05T07:50:19.437Z,1006.36
2019-02-05T07:51:19.357Z,1006.40
2019-02-05T07:52:19.343Z,1006.35
2019-02-05T07:53:19.338Z,1006.28
2019-02-05T07:54:19.342Z,1006.27
2019-02-05T07:55:19.316Z,1006.32
2019-02-05T07:56:19.474Z,1006.33
2019-02-05T07:57:19.301Z,1006.35
2019-02-05T07:58:19.281Z,1006.34
2019-02-05T07:59:19.269Z,1006.34
2019-02-05T08:00:19.277Z,1006.31
2019-02-05T08:01:19.360Z,1006.35
2019-02-05T08:02:19.284Z,1006.32
2019-02-05T08:03:19.231Z,1006.29
2019-02-05T08:04:19.217Z,1006.31
2019-02-05T08:05:19.236Z,1006.35
2019-02-05T08:06:19.200Z,1006.32
2019-02-05T08:07:19.187Z,1006.32
2019-02-05T08:08:19.202Z,1006.36
2019-02-05T08:09:19.164Z,1006.32
2019-02-05T08:10:19.155Z,1006.34
2019-02-05T08:11:19.164Z,1006.33
2019-02-05T08:12:19.137Z,1006.31
2019-02-05T08:13:19.126Z,1006.37
2019-02-05T08:14:19.193Z,1006.28
2019-02-05T08:15:19.098Z,1006.29
2019-02-05T08:16:29.015Z,1006.27
2019-02-05T08:17:19.086Z,1006.31
2019-02-05T08:18:19.079Z,1006.30
2019-02-05T08:19:19.062Z,1006.34
2019-02-05T08:20:19.089Z,1006.30
2019-02-05T08:21:19.045Z,1006.28
2019-02-05T08:22:19.023Z,1006.27
2019-02-05T08:23:19.019Z,1006.31
2019-02-05T08:24:19.014Z,1006.18
2019-02-05T08:25:18.994Z,1006.29
2019-02-05T08:26:19.184Z,1006.25
2019-02-05T08:27:18.978Z,1006.25
2019-02-05T08:28:18.968Z,1006.24
2019-02-05T08:29:21.718Z,1006.24
2019-02-05T08:30:18.941Z,1006.22
2019-02-05T08:31:18.940Z,1006.18
2019-02-05T08:32:18.964Z,1006.18
2019-02-05T08:33:18.910Z,1006.20
2019-02-05T08:34:18.913Z,1006.17
2019-02-05T08:35:18.889Z,1006.20
2019-02-05T08:36:18.876Z,1006.14
2019-02-05T08:37:18.883Z,1006.09
2019-02-05T08:38:18.902Z,1006.11
2019-02-05T08:39:18.849Z,1006.09
2019-02-05T08:40:18.831Z,1006.13
2019-02-05T08:41:18.825Z,1006.05
2019-02-05T08:42:18.818Z,1006.08
2019-02-05T08:43:18.804Z,1006.13
2019-02-05T08:44:18.832Z,1006.03
2019-02-05T08:45:18.781Z,1006.05
2019-02-05T08:46:18.771Z,1006.06
2019-02-05T08:47:28.939Z,1006.00
2019-02-05T08:48:18.750Z,1006.01
2019-02-05T08:49:18.747Z,1006.05
2019-02-05T08:50:18.761Z,1006.07
2019-02-05T08:51:18.720Z,1005.98
2019-02-05T08:52:18.706Z,1006.06
2019-02-05T08:53:18.694Z,1005.98
2019-02-05T08:54:18.693Z,1006.08
2019-02-05T08:55:18.672Z,1005.99
2019-02-05T08:56:18.725Z,1006.11
2019-02-05T08:57:18.650Z,1006.05
2019-02-05T08:58:30.326Z,1006.14
2019-02-05T08:59:19.642Z,1006.02
2019-02-05T09:00:18.622Z,1006.01
2019-02-05T09:01:18.606Z,1006.06
2019-02-05T09:02:18.638Z,1006.00
2019-02-05T09:03:18.588Z,1006.09
2019-02-05T09:04:18.575Z,1005.96
2019-02-05T09:05:18.561Z,1005.96
2019-02-05T09:06:18.550Z,1006.00
2019-02-05T09:07:18.544Z,1005.95
2019-02-05T09:08:18.581Z,1005.85
2019-02-05T09:09:18.524Z,1005.91
2019-02-05T09:10:18.507Z,1005.85
2019-02-05T09:11:18.499Z,1005.93
2019-02-05T09:12:18.494Z,1005.90
2019-02-05T09:13:18.572Z,1005.89
2019-02-05T09:14:18.653Z,1005.91
2019-02-05T09:15:28.860Z,1005.91
2019-02-05T09:16:19.445Z,1005.91
2019-02-05T09:17:18.433Z,1005.81
2019-02-05T09:18:29.150Z,1005.86
2019-02-05T09:19:18.418Z,1005.89
2019-02-05T09:20:18.446Z,1005.89
2019-02-05T09:21:18.397Z,1005.97
2019-02-05T09:22:18.380Z,1005.95
2019-02-05T09:23:19.312Z,1005.94
2019-02-05T09:24:18.361Z,1005.94
2019-02-05T09:25:18.348Z,1005.97
2019-02-05T09:26:18.383Z,1005.94
2019-02-05T09:27:18.328Z,1005.82
2019-02-05T09:28:18.318Z,1005.89
2019-02-05T09:29:18.309Z,1005.95
2019-02-05T09:30:18.299Z,1006.00
2019-02-05T09:31:18.293Z,1006.05
2019-02-05T09:32:18.345Z,1005.97
2019-02-05T09:33:18.262Z,1005.96
2019-02-05T09:34:18.256Z,1005.94
2019-02-05T09:35:18.326Z,1005.90
2019-02-05T09:36:18.231Z,1005.91
2019-02-05T09:37:18.228Z,1006.03
2019-02-05T09:38:18.258Z,1005.88
2019-02-05T09:39:18.211Z,1006.00
2019-02-05T09:40:18.185Z,1005.87
2019-02-05T09:41:18.182Z,1006.06
2019-02-05T09:42:18.167Z,1005.92
2019-02-05T09:43:18.159Z,1006.02
2019-02-05T09:44:18.184Z,1005.84
2019-02-05T09:45:18.138Z,1005.88
2019-02-05T09:46:18.127Z,1005.82
2019-02-05T09:47:18.119Z,1005.98
2019-02-05T09:48:18.105Z,1005.90
2019-02-05T09:49:29.858Z,1005.88
2019-02-05T09:50:18.085Z,1005.82
2019-02-05T09:51:18.075Z,1005.95
2019-02-05T09:52:18.061Z,1005.89
2019-02-05T09:53:18.083Z,1005.81
2019-02-05T09:54:18.076Z,1005.89
2019-02-05T09:55:18.111Z,1005.89
2019-02-05T09:56:18.060Z,1005.87
2019-02-05T09:57:18.359Z,1005.83
2019-02-05T09:58:18.043Z,1005.87
2019-02-05T09:59:18.147Z,1005.83
2019-02-05T10:00:18.015Z,1005.82
2019-02-05T10:01:18.058Z,1005.82
2019-02-05T10:02:17.953Z,1005.85
2019-02-05T10:03:17.973Z,1005.91
2019-02-05T10:04:17.934Z,1006.07
2019-02-05T10:05:17.986Z,1005.82
2019-02-05T10:06:17.909Z,1005.78
2019-02-05T10:07:17.935Z,1005.88
2019-02-05T10:08:17.892Z,1005.79
2019-02-05T10:09:17.901Z,1005.77
2019-02-05T10:10:17.871Z,1005.81
2019-02-05T10:11:17.855Z,1005.80
2019-02-05T10:12:17.844Z,1005.79
2019-02-05T10:13:17.871Z,1005.94
2019-02-05T10:14:17.848Z,1005.77
2019-02-05T10:15:17.848Z,1005.80
2019-02-05T10:16:17.901Z,1005.85
2019-02-05T10:17:17.789Z,1005.85
2019-02-05T10:18:17.783Z,1005.77
2019-02-05T10:19:18.073Z,1005.86
2019-02-05T10:20:28.798Z,1005.83
2019-02-05T10:21:17.762Z,1005.93
2019-02-05T10:22:17.735Z,1005.79
2019-02-05T10:23:17.775Z,1005.88
2019-02-05T10:24:17.712Z,1005.85
2019-02-05T10:25:18.839Z,1005.88
2019-02-05T10:26:17.691Z,1005.87
2019-02-05T10:27:17.678Z,1005.90
2019-02-05T10:28:17.674Z,1005.81
2019-02-05T10:29:17.660Z,1005.85
2019-02-05T10:30:17.653Z,1005.96
2019-02-05T10:31:17.822Z,1005.86
2019-02-05T10:32:17.629Z,1005.81
2019-02-05T10:33:17.615Z,1005.90
2019-02-05T10:34:17.606Z,1005.89
2019-02-05T10:35:17.594Z,1005.87
2019-02-05T10:36:17.602Z,1005.82
2019-02-05T10:37:17.612Z,1005.83
2019-02-05T10:38:17.575Z,1005.97
2019-02-05T10:39:17.559Z,1005.76
2019-02-05T10:40:17.539Z,1005.76
2019-02-05T10:41:17.540Z,1005.82
2019-02-05T10:42:17.532Z,1005.82
2019-02-05T10:43:17.554Z,1005.82
2019-02-05T10:44:17.515Z,1005.76
2019-02-05T10:45:17.492Z,1005.82
2019-02-05T10:46:17.476Z,1005.79
2019-02-05T10:47:17.472Z,1005.86
2019-02-05T10:48:17.467Z,1005.84
2019-02-05T10:49:17.483Z,1005.76
2019-02-05T10:50:17.436Z,1005.80
2019-02-05T10:51:28.603Z,1005.77
2019-02-05T10:52:17.412Z,1005.90
2019-02-05T10:53:17.418Z,1005.85
2019-02-05T10:54:17.417Z,1005.91
2019-02-05T10:55:17.420Z,1005.93
2019-02-05T10:56:17.383Z,1005.95
2019-02-05T10:57:17.355Z,1005.87
2019-02-05T10:58:17.381Z,1006.00
2019-02-05T10:59:17.346Z,1005.82
2019-02-05T11:00:17.368Z,1006.01
2019-02-05T11:01:17.364Z,1005.90
2019-02-05T11:02:17.310Z,1005.84
2019-02-05T11:03:17.293Z,1005.85
2019-02-05T11:04:17.288Z,1005.96
2019-02-05T11:05:17.330Z,1005.94
2019-02-05T11:06:20.010Z,1005.89
2019-02-05T11:07:17.323Z,1005.86
2019-02-05T11:08:17.248Z,1005.96
2019-02-05T11:09:17.228Z,1005.84
2019-02-05T11:10:17.221Z,1005.76
2019-02-05T11:11:17.223Z,1005.90
2019-02-05T11:12:17.194Z,1005.86
2019-02-05T11:13:18.960Z,1005.81
2019-02-05T11:14:17.174Z,1005.82
2019-02-05T11:15:17.166Z,1005.78
2019-02-05T11:16:17.158Z,1005.90
2019-02-05T11:17:17.165Z,1005.85
2019-02-05T11:18:17.869Z,1005.83
2019-02-05T11:19:17.172Z,1005.77
2019-02-05T11:20:17.110Z,1005.77
2019-02-05T11:21:17.846Z,1005.83
2019-02-05T11:22:27.637Z,1005.82
2019-02-05T11:23:17.079Z,1005.79
2019-02-05T11:24:17.072Z,1005.86
2019-02-05T11:25:17.094Z,1005.77
2019-02-05T11:26:17.049Z,1005.86
2019-02-05T11:27:17.040Z,1005.76
2019-02-05T11:28:17.029Z,1005.69
2019-02-05T11:29:17.011Z,1005.74
2019-02-05T11:30:20.224Z,1005.80
2019-02-05T11:31:17.176Z,1005.84
2019-02-05T11:32:16.984Z,1005.65
2019-02-05T11:33:16.983Z,1005.70
2019-02-05T11:34:17.880Z,1005.68
2019-02-05T11:35:17.009Z,1005.77
2019-02-05T11:36:16.946Z,1005.76
2019-02-05T11:37:16.978Z,1005.75
2019-02-05T11:38:16.927Z,1005.71
2019-02-05T11:39:16.956Z,1005.76
2019-02-05T11:40:16.895Z,1005.86
2019-02-05T11:41:16.888Z,1005.86
2019-02-05T11:42:16.879Z,1005.77
2019-02-05T11:43:16.899Z,1005.80
2019-02-05T11:44:16.950Z,1005.76
2019-02-05T11:45:16.846Z,1005.69
2019-02-05T11:46:17.230Z,1005.67
2019-02-05T11:47:16.823Z,1005.77
2019-02-05T11:48:16.811Z,1005.71
2019-02-05T11:49:16.859Z,1005.81
2019-02-05T11:50:16.801Z,1005.81
2019-02-05T11:51:16.776Z,1005.73
2019-02-05T11:52:16.770Z,1005.77
2019-02-05T11:53:27.823Z,1005.83
2019-02-05T11:54:16.744Z,1005.77
2019-02-05T11:55:16.842Z,1005.78
2019-02-05T11:56:16.722Z,1005.84
2019-02-05T11:57:16.708Z,1005.82
2019-02-05T11:58:16.702Z,1005.81
2019-02-05T11:59:16.690Z,1005.76
2019-02-05T12:00:16.690Z,1005.79
2019-02-05T12:01:16.748Z,1005.69
2019-02-05T12:02:16.656Z,1005.76
2019-02-05T12:03:16.645Z,1005.79
2019-02-05T12:04:16.637Z,1005.74
2019-02-05T12:05:16.630Z,1005.76